sensor_id;sensor_type;location;lat;lon;timestamp;P1;durP1;ratioP1;P2;durP2;ratioP2
42420;SDS011;28063;48.140;11.588;2022-11-27T00:01:11;7.13;;;4.95;;
42420;SDS011;28063;48.140;11.588;2022-11-27T00:03:38;8.43;;;4.80;;
42420;SDS011;28063;48.140;11.588;2022-11-27T00:06:04;8.35;;;4.30;;
42420;SDS011;28063;48.140;11.588;2022-11-27T00:08:31;7.15;;;4.95;;
42420;SDS011;28063;48.140;11.588;2022-11-27T00:11:03;7.68;;;4.88;;
42420;SDS011;28063;48.140;11.588;2022-11-27T00:13:33;8.98;;;5.10;;
42420;SDS011;28063;48.140;11.588;2022-11-27T00:16:00;7.93;;;4.80;;
42420;SDS011;28063;48.140;11.588;2022-11-27T00:18:26;7.35;;;4.35;;
42420;SDS011;28063;48.140;11.588;2022-11-27T00:20:52;8.02;;;5.13;;
42420;SDS011;28063;48.140;11.588;2022-11-27T00:23:18;8.50;;;4.32;;
42420;SDS011;28063;48.140;11.588;2022-11-27T00:25:51;7.78;;;4.75;;
42420;SDS011;28063;48.140;11.588;2022-11-27T00:28:17;7.93;;;4.45;;
42420;SDS011;28063;48.140;11.588;2022-11-27T00:30:44;6.22;;;4.45;;
42420;SDS011;28063;48.140;11.588;2022-11-27T00:33:10;6.43;;;4.55;;
42420;SDS011;28063;48.140;11.588;2022-11-27T00:35:39;7.63;;;4.35;;
42420;SDS011;28063;48.140;11.588;2022-11-27T00:38:06;7.30;;;4.47;;
42420;SDS011;28063;48.140;11.588;2022-11-27T00:40:32;6.15;;;4.07;;
42420;SDS011;28063;48.140;11.588;2022-11-27T00:42:58;8.52;;;4.80;;
42420;SDS011;28063;48.140;11.588;2022-11-27T00:45:25;6.57;;;4.15;;
42420;SDS011;28063;48.140;11.588;2022-11-27T00:47:51;6.68;;;4.53;;
42420;SDS011;28063;48.140;11.588;2022-11-27T00:50:17;7.35;;;4.35;;
42420;SDS011;28063;48.140;11.588;2022-11-27T00:52:44;7.32;;;4.30;;
42420;SDS011;28063;48.140;11.588;2022-11-27T00:55:11;9.25;;;4.10;;
42420;SDS011;28063;48.140;11.588;2022-11-27T01:00:13;7.65;;;3.85;;
42420;SDS011;28063;48.140;11.588;2022-11-27T01:02:39;7.07;;;4.07;;
42420;SDS011;28063;48.140;11.588;2022-11-27T01:05:07;5.88;;;4.00;;
42420;SDS011;28063;48.140;11.588;2022-11-27T01:07:35;5.85;;;4.03;;
42420;SDS011;28063;48.140;11.588;2022-11-27T01:10:02;5.95;;;4.18;;
42420;SDS011;28063;48.140;11.588;2022-11-27T01:12:28;6.15;;;3.58;;
42420;SDS011;28063;48.140;11.588;2022-11-27T01:14:54;5.28;;;3.00;;
42420;SDS011;28063;48.140;11.588;2022-11-27T01:17:20;4.72;;;3.30;;
42420;SDS011;28063;48.140;11.588;2022-11-27T01:19:46;4.95;;;3.33;;
42420;SDS011;28063;48.140;11.588;2022-11-27T01:22:12;4.72;;;3.00;;
42420;SDS011;28063;48.140;11.588;2022-11-27T01:24:38;5.15;;;3.17;;
42420;SDS011;28063;48.140;11.588;2022-11-27T01:27:04;6.90;;;3.25;;
42420;SDS011;28063;48.140;11.588;2022-11-27T01:29:30;5.35;;;3.03;;
42420;SDS011;28063;48.140;11.588;2022-11-27T01:31:56;3.38;;;3.08;;
42420;SDS011;28063;48.140;11.588;2022-11-27T01:34:22;4.10;;;2.80;;
42420;SDS011;28063;48.140;11.588;2022-11-27T01:36:49;3.70;;;2.80;;
42420;SDS011;28063;48.140;11.588;2022-11-27T01:39:16;5.43;;;2.97;;
42420;SDS011;28063;48.140;11.588;2022-11-27T01:41:43;3.30;;;2.58;;
42420;SDS011;28063;48.140;11.588;2022-11-27T01:46:55;4.57;;;2.95;;
42420;SDS011;28063;48.140;11.588;2022-11-27T01:49:26;4.95;;;2.50;;
42420;SDS011;28063;48.140;11.588;2022-11-27T01:52:01;3.47;;;2.50;;
42420;SDS011;28063;48.140;11.588;2022-11-27T01:54:30;3.95;;;2.83;;
42420;SDS011;28063;48.140;11.588;2022-11-27T01:56:58;4.35;;;2.80;;
42420;SDS011;28063;48.140;11.588;2022-11-27T01:59:25;4.32;;;2.50;;
42420;SDS011;28063;48.140;11.588;2022-11-27T02:01:51;3.42;;;2.58;;
42420;SDS011;28063;48.140;11.588;2022-11-27T02:04:17;4.20;;;2.30;;
42420;SDS011;28063;48.140;11.588;2022-11-27T02:06:47;4.13;;;2.47;;
42420;SDS011;28063;48.140;11.588;2022-11-27T02:09:13;2.95;;;2.20;;
42420;SDS011;28063;48.140;11.588;2022-11-27T02:11:48;3.17;;;2.33;;
42420;SDS011;28063;48.140;11.588;2022-11-27T02:17:06;3.20;;;2.30;;
42420;SDS011;28063;48.140;11.588;2022-11-27T02:29:53;4.50;;;3.00;;
42420;SDS011;28063;48.140;11.588;2022-11-27T02:32:24;3.47;;;2.50;;
42420;SDS011;28063;48.140;11.588;2022-11-27T02:35:00;5.00;;;2.85;;
42420;SDS011;28063;48.140;11.588;2022-11-27T02:40:02;3.97;;;2.85;;
42420;SDS011;28063;48.140;11.588;2022-11-27T02:42:30;5.82;;;2.63;;
42420;SDS011;28063;48.140;11.588;2022-11-27T02:44:58;3.80;;;2.53;;
42420;SDS011;28063;48.140;11.588;2022-11-27T02:47:26;4.93;;;2.90;;
42420;SDS011;28063;48.140;11.588;2022-11-27T02:49:53;5.20;;;2.38;;
42420;SDS011;28063;48.140;11.588;2022-11-27T02:52:21;5.45;;;2.95;;
42420;SDS011;28063;48.140;11.588;2022-11-27T02:54:47;4.22;;;2.58;;
42420;SDS011;28063;48.140;11.588;2022-11-27T02:57:15;4.97;;;2.78;;
42420;SDS011;28063;48.140;11.588;2022-11-27T02:59:42;6.95;;;2.75;;
42420;SDS011;28063;48.140;11.588;2022-11-27T03:02:10;6.35;;;2.95;;
42420;SDS011;28063;48.140;11.588;2022-11-27T03:04:46;3.38;;;2.35;;
42420;SDS011;28063;48.140;11.588;2022-11-27T03:07:21;6.25;;;3.40;;
42420;SDS011;28063;48.140;11.588;2022-11-27T03:09:50;7.20;;;3.47;;
42420;SDS011;28063;48.140;11.588;2022-11-27T03:12:21;8.40;;;3.10;;
42420;SDS011;28063;48.140;11.588;2022-11-27T03:14:47;5.50;;;2.97;;
42420;SDS011;28063;48.140;11.588;2022-11-27T03:22:18;7.53;;;3.28;;
42420;SDS011;28063;48.140;11.588;2022-11-27T03:24:44;6.07;;;2.75;;
42420;SDS011;28063;48.140;11.588;2022-11-27T03:27:13;4.28;;;2.72;;
42420;SDS011;28063;48.140;11.588;2022-11-27T03:29:47;4.68;;;2.40;;
42420;SDS011;28063;48.140;11.588;2022-11-27T03:32:14;2.92;;;2.20;;
42420;SDS011;28063;48.140;11.588;2022-11-27T03:34:41;4.68;;;2.90;;
42420;SDS011;28063;48.140;11.588;2022-11-27T03:37:07;2.92;;;2.08;;
42420;SDS011;28063;48.140;11.588;2022-11-27T03:39:33;3.03;;;2.33;;
42420;SDS011;28063;48.140;11.588;2022-11-27T03:44:41;5.13;;;2.97;;
42420;SDS011;28063;48.140;11.588;2022-11-27T03:55:01;6.30;;;2.95;;
42420;SDS011;28063;48.140;11.588;2022-11-27T03:57:41;6.03;;;3.20;;
42420;SDS011;28063;48.140;11.588;2022-11-27T04:00:10;5.85;;;2.90;;
42420;SDS011;28063;48.140;11.588;2022-11-27T04:02:44;4.90;;;3.15;;
42420;SDS011;28063;48.140;11.588;2022-11-27T04:05:11;5.90;;;3.33;;
42420;SDS011;28063;48.140;11.588;2022-11-27T04:07:37;4.88;;;3.42;;
42420;SDS011;28063;48.140;11.588;2022-11-27T04:10:04;6.00;;;3.08;;
42420;SDS011;28063;48.140;11.588;2022-11-27T04:12:30;4.05;;;2.63;;
42420;SDS011;28063;48.140;11.588;2022-11-27T04:14:59;5.85;;;3.55;;
42420;SDS011;28063;48.140;11.588;2022-11-27T04:17:25;6.03;;;3.38;;
42420;SDS011;28063;48.140;11.588;2022-11-27T04:19:51;5.55;;;3.40;;
42420;SDS011;28063;48.140;11.588;2022-11-27T04:22:17;7.22;;;3.58;;
42420;SDS011;28063;48.140;11.588;2022-11-27T04:24:43;3.60;;;2.60;;
42420;SDS011;28063;48.140;11.588;2022-11-27T04:27:13;4.25;;;2.80;;
42420;SDS011;28063;48.140;11.588;2022-11-27T04:29:39;5.20;;;3.50;;
42420;SDS011;28063;48.140;11.588;2022-11-27T04:32:05;5.13;;;3.13;;
42420;SDS011;28063;48.140;11.588;2022-11-27T04:34:31;5.10;;;3.42;;
42420;SDS011;28063;48.140;11.588;2022-11-27T04:36:57;5.28;;;3.67;;
42420;SDS011;28063;48.140;11.588;2022-11-27T04:39:23;7.97;;;3.92;;
42420;SDS011;28063;48.140;11.588;2022-11-27T04:41:49;6.85;;;4.10;;
42420;SDS011;28063;48.140;11.588;2022-11-27T04:44:15;5.75;;;3.88;;
42420;SDS011;28063;48.140;11.588;2022-11-27T04:46:42;5.07;;;3.70;;
42420;SDS011;28063;48.140;11.588;2022-11-27T04:49:11;7.00;;;4.03;;
42420;SDS011;28063;48.140;11.588;2022-11-27T04:51:37;6.65;;;4.03;;
42420;SDS011;28063;48.140;11.588;2022-11-27T04:54:03;5.00;;;3.30;;
42420;SDS011;28063;48.140;11.588;2022-11-27T04:56:29;6.68;;;4.28;;
42420;SDS011;28063;48.140;11.588;2022-11-27T04:58:55;6.70;;;3.67;;
42420;SDS011;28063;48.140;11.588;2022-11-27T05:01:21;5.35;;;4.00;;
42420;SDS011;28063;48.140;11.588;2022-11-27T05:03:47;6.15;;;4.22;;
42420;SDS011;28063;48.140;11.588;2022-11-27T05:06:13;7.28;;;4.60;;
42420;SDS011;28063;48.140;11.588;2022-11-27T05:08:40;4.93;;;3.15;;
42420;SDS011;28063;48.140;11.588;2022-11-27T05:11:10;4.25;;;2.95;;
42420;SDS011;28063;48.140;11.588;2022-11-27T05:13:37;6.05;;;3.47;;
42420;SDS011;28063;48.140;11.588;2022-11-27T05:16:03;5.78;;;4.00;;
42420;SDS011;28063;48.140;11.588;2022-11-27T05:18:29;6.75;;;3.78;;
42420;SDS011;28063;48.140;11.588;2022-11-27T05:20:59;5.90;;;4.07;;
42420;SDS011;28063;48.140;11.588;2022-11-27T05:23:26;4.90;;;3.35;;
42420;SDS011;28063;48.140;11.588;2022-11-27T05:25:52;5.60;;;3.40;;
42420;SDS011;28063;48.140;11.588;2022-11-27T05:28:19;5.82;;;3.03;;
42420;SDS011;28063;48.140;11.588;2022-11-27T05:30:45;5.85;;;3.80;;
42420;SDS011;28063;48.140;11.588;2022-11-27T05:33:11;6.28;;;3.67;;
42420;SDS011;28063;48.140;11.588;2022-11-27T05:35:37;4.82;;;3.63;;
42420;SDS011;28063;48.140;11.588;2022-11-27T05:38:03;5.40;;;3.50;;
42420;SDS011;28063;48.140;11.588;2022-11-27T05:40:29;5.47;;;3.55;;
42420;SDS011;28063;48.140;11.588;2022-11-27T05:42:56;6.53;;;4.00;;
42420;SDS011;28063;48.140;11.588;2022-11-27T05:45:22;6.15;;;3.75;;
42420;SDS011;28063;48.140;11.588;2022-11-27T05:47:48;5.25;;;3.45;;
42420;SDS011;28063;48.140;11.588;2022-11-27T05:50:14;4.20;;;3.60;;
42420;SDS011;28063;48.140;11.588;2022-11-27T05:52:40;5.95;;;3.63;;
42420;SDS011;28063;48.140;11.588;2022-11-27T05:55:06;5.90;;;3.65;;
42420;SDS011;28063;48.140;11.588;2022-11-27T05:57:32;5.65;;;3.45;;
42420;SDS011;28063;48.140;11.588;2022-11-27T05:59:58;4.20;;;3.05;;
42420;SDS011;28063;48.140;11.588;2022-11-27T06:02:24;6.32;;;3.05;;
42420;SDS011;28063;48.140;11.588;2022-11-27T06:04:51;6.25;;;3.40;;
42420;SDS011;28063;48.140;11.588;2022-11-27T06:07:17;5.00;;;3.03;;
42420;SDS011;28063;48.140;11.588;2022-11-27T06:09:43;5.20;;;3.60;;
42420;SDS011;28063;48.140;11.588;2022-11-27T06:12:09;4.20;;;2.85;;
42420;SDS011;28063;48.140;11.588;2022-11-27T06:14:35;7.22;;;3.13;;
42420;SDS011;28063;48.140;11.588;2022-11-27T06:17:01;7.70;;;3.15;;
42420;SDS011;28063;48.140;11.588;2022-11-27T06:19:28;5.20;;;2.55;;
42420;SDS011;28063;48.140;11.588;2022-11-27T06:21:54;3.28;;;2.53;;
42420;SDS011;28063;48.140;11.588;2022-11-27T06:24:20;3.22;;;2.63;;
42420;SDS011;28063;48.140;11.588;2022-11-27T06:26:46;4.22;;;2.75;;
42420;SDS011;28063;48.140;11.588;2022-11-27T06:29:12;4.13;;;2.65;;
42420;SDS011;28063;48.140;11.588;2022-11-27T06:31:38;3.67;;;2.65;;
42420;SDS011;28063;48.140;11.588;2022-11-27T06:34:05;4.72;;;2.72;;
42420;SDS011;28063;48.140;11.588;2022-11-27T06:36:32;4.10;;;2.45;;
42420;SDS011;28063;48.140;11.588;2022-11-27T06:38:59;4.53;;;2.72;;
42420;SDS011;28063;48.140;11.588;2022-11-27T06:41:25;4.70;;;2.80;;
42420;SDS011;28063;48.140;11.588;2022-11-27T06:43:52;3.50;;;2.10;;
42420;SDS011;28063;48.140;11.588;2022-11-27T06:46:19;3.97;;;2.90;;
42420;SDS011;28063;48.140;11.588;2022-11-27T06:48:46;4.13;;;2.53;;
42420;SDS011;28063;48.140;11.588;2022-11-27T06:51:14;4.50;;;2.88;;
42420;SDS011;28063;48.140;11.588;2022-11-27T06:53:40;3.60;;;2.50;;
42420;SDS011;28063;48.140;11.588;2022-11-27T06:56:08;3.72;;;2.63;;
42420;SDS011;28063;48.140;11.588;2022-11-27T06:58:34;5.72;;;2.95;;
42420;SDS011;28063;48.140;11.588;2022-11-27T07:01:02;3.47;;;2.70;;
42420;SDS011;28063;48.140;11.588;2022-11-27T07:03:28;3.85;;;2.97;;
42420;SDS011;28063;48.140;11.588;2022-11-27T07:05:54;4.80;;;3.65;;
42420;SDS011;28063;48.140;11.588;2022-11-27T07:08:20;5.72;;;4.28;;
42420;SDS011;28063;48.140;11.588;2022-11-27T07:10:46;6.75;;;3.47;;
42420;SDS011;28063;48.140;11.588;2022-11-27T07:13:12;5.78;;;3.45;;
42420;SDS011;28063;48.140;11.588;2022-11-27T07:15:38;5.38;;;3.60;;
42420;SDS011;28063;48.140;11.588;2022-11-27T07:18:04;7.10;;;3.42;;
42420;SDS011;28063;48.140;11.588;2022-11-27T07:20:31;4.45;;;3.45;;
42420;SDS011;28063;48.140;11.588;2022-11-27T07:22:57;5.40;;;3.42;;
42420;SDS011;28063;48.140;11.588;2022-11-27T07:25:23;3.85;;;3.22;;
42420;SDS011;28063;48.140;11.588;2022-11-27T07:27:49;6.00;;;3.53;;
42420;SDS011;28063;48.140;11.588;2022-11-27T07:30:15;4.80;;;3.38;;
42420;SDS011;28063;48.140;11.588;2022-11-27T07:32:41;6.35;;;3.90;;
42420;SDS011;28063;48.140;11.588;2022-11-27T07:35:07;5.75;;;3.92;;
42420;SDS011;28063;48.140;11.588;2022-11-27T07:37:34;6.55;;;4.18;;
42420;SDS011;28063;48.140;11.588;2022-11-27T07:40:00;9.10;;;4.75;;
42420;SDS011;28063;48.140;11.588;2022-11-27T07:42:26;7.80;;;5.47;;
42420;SDS011;28063;48.140;11.588;2022-11-27T07:44:53;9.02;;;5.55;;
42420;SDS011;28063;48.140;11.588;2022-11-27T07:47:19;9.25;;;5.88;;
42420;SDS011;28063;48.140;11.588;2022-11-27T07:49:45;8.07;;;5.30;;
42420;SDS011;28063;48.140;11.588;2022-11-27T07:52:11;9.73;;;5.13;;
42420;SDS011;28063;48.140;11.588;2022-11-27T07:54:37;6.07;;;4.60;;
42420;SDS011;28063;48.140;11.588;2022-11-27T07:57:03;9.05;;;5.47;;
42420;SDS011;28063;48.140;11.588;2022-11-27T07:59:30;5.80;;;4.47;;
42420;SDS011;28063;48.140;11.588;2022-11-27T08:01:56;8.02;;;4.85;;
42420;SDS011;28063;48.140;11.588;2022-11-27T08:04:24;7.78;;;4.70;;
42420;SDS011;28063;48.140;11.588;2022-11-27T08:06:51;7.50;;;4.75;;
42420;SDS011;28063;48.140;11.588;2022-11-27T08:09:17;7.90;;;5.30;;
42420;SDS011;28063;48.140;11.588;2022-11-27T08:11:43;7.63;;;4.93;;
42420;SDS011;28063;48.140;11.588;2022-11-27T08:14:09;8.80;;;5.10;;
42420;SDS011;28063;48.140;11.588;2022-11-27T08:16:37;9.05;;;4.60;;
42420;SDS011;28063;48.140;11.588;2022-11-27T08:19:03;6.07;;;4.93;;
42420;SDS011;28063;48.140;11.588;2022-11-27T08:21:29;8.13;;;5.53;;
42420;SDS011;28063;48.140;11.588;2022-11-27T08:23:56;8.07;;;4.70;;
42420;SDS011;28063;48.140;11.588;2022-11-27T08:26:22;9.95;;;4.45;;
42420;SDS011;28063;48.140;11.588;2022-11-27T08:28:51;7.35;;;5.28;;
42420;SDS011;28063;48.140;11.588;2022-11-27T08:31:18;6.40;;;4.78;;
42420;SDS011;28063;48.140;11.588;2022-11-27T08:33:47;7.07;;;5.22;;
42420;SDS011;28063;48.140;11.588;2022-11-27T08:36:13;8.05;;;4.88;;
42420;SDS011;28063;48.140;11.588;2022-11-27T08:38:40;6.07;;;4.57;;
42420;SDS011;28063;48.140;11.588;2022-11-27T08:41:09;5.03;;;4.05;;
42420;SDS011;28063;48.140;11.588;2022-11-27T08:43:35;6.00;;;4.40;;
42420;SDS011;28063;48.140;11.588;2022-11-27T08:46:02;6.10;;;4.22;;
42420;SDS011;28063;48.140;11.588;2022-11-27T08:48:31;6.10;;;4.65;;
42420;SDS011;28063;48.140;11.588;2022-11-27T08:50:58;8.38;;;4.53;;
42420;SDS011;28063;48.140;11.588;2022-11-27T08:53:24;5.78;;;3.97;;
42420;SDS011;28063;48.140;11.588;2022-11-27T08:55:50;6.88;;;5.22;;
42420;SDS011;28063;48.140;11.588;2022-11-27T08:58:16;7.05;;;4.63;;
42420;SDS011;28063;48.140;11.588;2022-11-27T09:00:45;5.95;;;4.45;;
42420;SDS011;28063;48.140;11.588;2022-11-27T09:03:11;6.30;;;4.10;;
42420;SDS011;28063;48.140;11.588;2022-11-27T09:05:40;6.65;;;3.83;;
42420;SDS011;28063;48.140;11.588;2022-11-27T09:08:07;5.15;;;4.10;;
42420;SDS011;28063;48.140;11.588;2022-11-27T09:10:36;4.22;;;3.60;;
42420;SDS011;28063;48.140;11.588;2022-11-27T09:13:02;6.65;;;3.83;;
42420;SDS011;28063;48.140;11.588;2022-11-27T09:15:28;8.57;;;3.35;;
42420;SDS011;28063;48.140;11.588;2022-11-27T09:17:54;4.93;;;3.88;;
42420;SDS011;28063;48.140;11.588;2022-11-27T09:20:20;4.78;;;3.83;;
42420;SDS011;28063;48.140;11.588;2022-11-27T09:22:46;4.68;;;2.90;;
42420;SDS011;28063;48.140;11.588;2022-11-27T09:25:12;5.60;;;3.75;;
42420;SDS011;28063;48.140;11.588;2022-11-27T09:27:38;4.60;;;2.97;;
42420;SDS011;28063;48.140;11.588;2022-11-27T09:30:05;3.42;;;2.75;;
42420;SDS011;28063;48.140;11.588;2022-11-27T09:32:32;4.15;;;2.80;;
42420;SDS011;28063;48.140;11.588;2022-11-27T09:34:59;3.60;;;2.38;;
42420;SDS011;28063;48.140;11.588;2022-11-27T09:37:25;2.72;;;2.30;;
42420;SDS011;28063;48.140;11.588;2022-11-27T09:39:51;3.25;;;2.40;;
42420;SDS011;28063;48.140;11.588;2022-11-27T09:43:02;7.72;;;4.10;;
42420;SDS011;28063;48.140;11.588;2022-11-27T09:45:12;4.10;;;3.65;;
42420;SDS011;28063;48.140;11.588;2022-11-27T09:50:15;5.45;;;4.07;;
42420;SDS011;28063;48.140;11.588;2022-11-27T09:52:47;5.20;;;2.97;;
42420;SDS011;28063;48.140;11.588;2022-11-27T09:55:15;5.07;;;3.60;;
42420;SDS011;28063;48.140;11.588;2022-11-27T09:57:45;5.45;;;4.07;;
42420;SDS011;28063;48.140;11.588;2022-11-27T10:00:18;6.13;;;4.47;;
42420;SDS011;28063;48.140;11.588;2022-11-27T10:02:44;6.15;;;4.60;;
42420;SDS011;28063;48.140;11.588;2022-11-27T10:13:16;4.72;;;3.72;;
42420;SDS011;28063;48.140;11.588;2022-11-27T10:20:44;7.10;;;4.95;;
42420;SDS011;28063;48.140;11.588;2022-11-27T10:25:50;3.95;;;2.63;;
42420;SDS011;28063;48.140;11.588;2022-11-27T10:28:37;3.25;;;2.72;;
42420;SDS011;28063;48.140;11.588;2022-11-27T10:31:13;3.30;;;2.75;;
42420;SDS011;28063;48.140;11.588;2022-11-27T10:33:46;3.80;;;2.63;;
42420;SDS011;28063;48.140;11.588;2022-11-27T10:36:14;4.68;;;2.90;;
42420;SDS011;28063;48.140;11.588;2022-11-27T10:38:43;4.10;;;2.85;;
42420;SDS011;28063;48.140;11.588;2022-11-27T10:43:38;6.80;;;2.75;;
42420;SDS011;28063;48.140;11.588;2022-11-27T10:46:09;3.78;;;2.38;;
42420;SDS011;28063;48.140;11.588;2022-11-27T10:48:37;3.97;;;2.75;;
42420;SDS011;28063;48.140;11.588;2022-11-27T10:51:08;3.33;;;2.25;;
42420;SDS011;28063;48.140;11.588;2022-11-27T10:53:37;2.72;;;2.13;;
42420;SDS011;28063;48.140;11.588;2022-11-27T11:01:06;4.28;;;2.78;;
42420;SDS011;28063;48.140;11.588;2022-11-27T11:03:32;2.58;;;2.38;;
42420;SDS011;28063;48.140;11.588;2022-11-27T11:06:02;3.28;;;2.40;;
42420;SDS011;28063;48.140;11.588;2022-11-27T11:08:29;2.67;;;1.90;;
42420;SDS011;28063;48.140;11.588;2022-11-27T11:10:57;2.63;;;2.15;;
42420;SDS011;28063;48.140;11.588;2022-11-27T11:13:28;3.65;;;2.58;;
42420;SDS011;28063;48.140;11.588;2022-11-27T11:16:05;4.20;;;2.70;;
42420;SDS011;28063;48.140;11.588;2022-11-27T11:18:42;3.60;;;2.95;;
42420;SDS011;28063;48.140;11.588;2022-11-27T11:21:12;4.35;;;3.00;;
42420;SDS011;28063;48.140;11.588;2022-11-27T11:23:40;4.00;;;3.05;;
42420;SDS011;28063;48.140;11.588;2022-11-27T11:26:40;4.93;;;3.50;;
42420;SDS011;28063;48.140;11.588;2022-11-27T11:28:59;3.67;;;2.92;;
42420;SDS011;28063;48.140;11.588;2022-11-27T11:31:28;5.97;;;3.90;;
42420;SDS011;28063;48.140;11.588;2022-11-27T11:33:57;4.35;;;3.50;;
42420;SDS011;28063;48.140;11.588;2022-11-27T11:36:23;4.57;;;3.60;;
42420;SDS011;28063;48.140;11.588;2022-11-27T11:38:50;5.65;;;4.25;;
42420;SDS011;28063;48.140;11.588;2022-11-27T11:41:16;4.18;;;3.50;;
42420;SDS011;28063;48.140;11.588;2022-11-27T11:43:59;4.47;;;3.50;;
42420;SDS011;28063;48.140;11.588;2022-11-27T11:46:27;4.88;;;3.65;;
42420;SDS011;28063;48.140;11.588;2022-11-27T11:49:03;5.32;;;3.80;;
42420;SDS011;28063;48.140;11.588;2022-11-27T11:51:40;4.90;;;3.67;;
42420;SDS011;28063;48.140;11.588;2022-11-27T11:56:51;4.63;;;3.63;;
42420;SDS011;28063;48.140;11.588;2022-11-27T12:10:12;4.75;;;4.00;;
42420;SDS011;28063;48.140;11.588;2022-11-27T12:12:49;6.20;;;4.95;;
42420;SDS011;28063;48.140;11.588;2022-11-27T12:15:21;7.03;;;4.78;;
42420;SDS011;28063;48.140;11.588;2022-11-27T12:18:05;6.43;;;4.85;;
42420;SDS011;28063;48.140;11.588;2022-11-27T12:28:24;6.38;;;4.60;;
42420;SDS011;28063;48.140;11.588;2022-11-27T12:30:58;6.50;;;4.70;;
42420;SDS011;28063;48.140;11.588;2022-11-27T12:33:32;6.40;;;4.28;;
42420;SDS011;28063;48.140;11.588;2022-11-27T12:36:09;6.53;;;4.82;;
42420;SDS011;28063;48.140;11.588;2022-11-27T12:43:49;8.15;;;5.32;;
42420;SDS011;28063;48.140;11.588;2022-11-27T12:49:23;7.22;;;5.07;;
42420;SDS011;28063;48.140;11.588;2022-11-27T12:51:56;7.15;;;5.82;;
42420;SDS011;28063;48.140;11.588;2022-11-27T12:54:30;8.38;;;5.43;;
42420;SDS011;28063;48.140;11.588;2022-11-27T12:56:58;6.72;;;5.00;;
42420;SDS011;28063;48.140;11.588;2022-11-27T13:02:01;9.95;;;6.70;;
42420;SDS011;28063;48.140;11.588;2022-11-27T13:04:38;9.73;;;5.88;;
42420;SDS011;28063;48.140;11.588;2022-11-27T13:09:47;6.35;;;4.85;;
42420;SDS011;28063;48.140;11.588;2022-11-27T13:12:23;8.27;;;6.00;;
42420;SDS011;28063;48.140;11.588;2022-11-27T13:14:57;8.93;;;5.95;;
42420;SDS011;28063;48.140;11.588;2022-11-27T13:17:26;6.43;;;5.05;;
42420;SDS011;28063;48.140;11.588;2022-11-27T13:19:54;6.90;;;5.22;;
42420;SDS011;28063;48.140;11.588;2022-11-27T13:22:21;5.65;;;4.47;;
42420;SDS011;28063;48.140;11.588;2022-11-27T13:24:51;8.63;;;5.95;;
42420;SDS011;28063;48.140;11.588;2022-11-27T13:27:18;9.15;;;7.05;;
42420;SDS011;28063;48.140;11.588;2022-11-27T13:29:54;9.15;;;7.28;;
42420;SDS011;28063;48.140;11.588;2022-11-27T13:32:23;8.20;;;6.20;;
42420;SDS011;28063;48.140;11.588;2022-11-27T13:34:50;11.15;;;6.65;;
42420;SDS011;28063;48.140;11.588;2022-11-27T13:37:25;8.20;;;6.75;;
42420;SDS011;28063;48.140;11.588;2022-11-27T13:39:57;9.27;;;6.63;;
42420;SDS011;28063;48.140;11.588;2022-11-27T13:42:24;8.15;;;6.00;;
42420;SDS011;28063;48.140;11.588;2022-11-27T13:44:54;10.35;;;6.05;;
42420;SDS011;28063;48.140;11.588;2022-11-27T13:47:21;8.75;;;6.93;;
42420;SDS011;28063;48.140;11.588;2022-11-27T13:49:59;10.07;;;7.28;;
42420;SDS011;28063;48.140;11.588;2022-11-27T13:52:26;10.68;;;6.97;;
42420;SDS011;28063;48.140;11.588;2022-11-27T13:54:57;11.57;;;6.88;;
42420;SDS011;28063;48.140;11.588;2022-11-27T13:57:24;8.13;;;5.82;;
42420;SDS011;28063;48.140;11.588;2022-11-27T13:59:54;8.65;;;6.72;;
42420;SDS011;28063;48.140;11.588;2022-11-27T14:02:20;8.70;;;6.45;;
42420;SDS011;28063;48.140;11.588;2022-11-27T14:04:47;10.70;;;7.32;;
42420;SDS011;28063;48.140;11.588;2022-11-27T14:07:14;11.77;;;7.10;;
42420;SDS011;28063;48.140;11.588;2022-11-27T14:09:47;8.32;;;6.95;;
42420;SDS011;28063;48.140;11.588;2022-11-27T14:12:15;11.23;;;7.63;;
42420;SDS011;28063;48.140;11.588;2022-11-27T14:14:42;12.00;;;7.78;;
42420;SDS011;28063;48.140;11.588;2022-11-27T14:19:57;12.40;;;7.88;;
42420;SDS011;28063;48.140;11.588;2022-11-27T14:22:39;13.20;;;8.48;;
42420;SDS011;28063;48.140;11.588;2022-11-27T14:25:17;11.77;;;8.05;;
42420;SDS011;28063;48.140;11.588;2022-11-27T14:27:43;13.07;;;8.07;;
42420;SDS011;28063;48.140;11.588;2022-11-27T14:30:24;13.45;;;8.23;;
42420;SDS011;28063;48.140;11.588;2022-11-27T14:32:51;11.40;;;7.97;;
42420;SDS011;28063;48.140;11.588;2022-11-27T14:35:20;11.98;;;7.75;;
42420;SDS011;28063;48.140;11.588;2022-11-27T14:37:47;11.70;;;7.80;;
42420;SDS011;28063;48.140;11.588;2022-11-27T14:40:34;13.00;;;8.05;;
42420;SDS011;28063;48.140;11.588;2022-11-27T14:43:09;11.70;;;7.78;;
42420;SDS011;28063;48.140;11.588;2022-11-27T14:45:35;11.60;;;8.05;;
42420;SDS011;28063;48.140;11.588;2022-11-27T14:48:02;12.15;;;8.43;;
42420;SDS011;28063;48.140;11.588;2022-11-27T14:50:28;15.10;;;9.02;;
42420;SDS011;28063;48.140;11.588;2022-11-27T14:52:54;14.85;;;7.80;;
42420;SDS011;28063;48.140;11.588;2022-11-27T14:55:21;14.38;;;9.48;;
42420;SDS011;28063;48.140;11.588;2022-11-27T14:57:47;16.73;;;9.40;;
42420;SDS011;28063;48.140;11.588;2022-11-27T15:00:15;16.27;;;9.55;;
42420;SDS011;28063;48.140;11.588;2022-11-27T15:02:42;20.23;;;9.63;;
42420;SDS011;28063;48.140;11.588;2022-11-27T15:05:24;12.45;;;8.35;;
42420;SDS011;28063;48.140;11.588;2022-11-27T15:07:53;16.25;;;10.40;;
42420;SDS011;28063;48.140;11.588;2022-11-27T15:12:46;32.70;;;18.17;;
42420;SDS011;28063;48.140;11.588;2022-11-27T15:17:39;17.17;;;10.00;;
42420;SDS011;28063;48.140;11.588;2022-11-27T15:20:17;17.25;;;11.48;;
42420;SDS011;28063;48.140;11.588;2022-11-27T15:22:47;14.23;;;10.18;;
42420;SDS011;28063;48.140;11.588;2022-11-27T15:27:57;14.68;;;8.52;;
42420;SDS011;28063;48.140;11.588;2022-11-27T15:30:23;14.60;;;9.35;;
42420;SDS011;28063;48.140;11.588;2022-11-27T15:32:50;12.70;;;8.25;;
42420;SDS011;28063;48.140;11.588;2022-11-27T15:37:46;13.32;;;9.05;;
42420;SDS011;28063;48.140;11.588;2022-11-27T15:40:26;15.45;;;10.48;;
42420;SDS011;28063;48.140;11.588;2022-11-27T15:42:52;13.40;;;9.23;;
42420;SDS011;28063;48.140;11.588;2022-11-27T15:45:18;17.00;;;10.15;;
42420;SDS011;28063;48.140;11.588;2022-11-27T15:47:44;12.98;;;9.52;;
42420;SDS011;28063;48.140;11.588;2022-11-27T15:50:14;12.63;;;8.15;;
42420;SDS011;28063;48.140;11.588;2022-11-27T15:52:41;14.10;;;9.05;;
42420;SDS011;28063;48.140;11.588;2022-11-27T15:55:11;11.82;;;8.65;;
42420;SDS011;28063;48.140;11.588;2022-11-27T15:57:38;14.70;;;9.38;;
42420;SDS011;28063;48.140;11.588;2022-11-27T16:00:05;13.57;;;8.68;;
42420;SDS011;28063;48.140;11.588;2022-11-27T16:02:33;13.48;;;8.43;;
42420;SDS011;28063;48.140;11.588;2022-11-27T16:05:00;13.73;;;8.85;;
42420;SDS011;28063;48.140;11.588;2022-11-27T16:07:26;15.20;;;9.32;;
42420;SDS011;28063;48.140;11.588;2022-11-27T16:09:52;14.63;;;9.07;;
42420;SDS011;28063;48.140;11.588;2022-11-27T16:12:18;14.43;;;9.45;;
42420;SDS011;28063;48.140;11.588;2022-11-27T16:14:44;14.52;;;9.80;;
42420;SDS011;28063;48.140;11.588;2022-11-27T16:17:10;15.05;;;9.55;;
42420;SDS011;28063;48.140;11.588;2022-11-27T16:19:36;16.15;;;9.48;;
42420;SDS011;28063;48.140;11.588;2022-11-27T16:22:02;13.98;;;9.07;;
42420;SDS011;28063;48.140;11.588;2022-11-27T16:24:28;13.65;;;8.18;;
42420;SDS011;28063;48.140;11.588;2022-11-27T16:26:54;12.50;;;8.00;;
42420;SDS011;28063;48.140;11.588;2022-11-27T16:29:20;11.70;;;8.00;;